sensor_id;sensor_type;location;lat;lon;timestamp;P1;durP1;ratioP1;P2;durP2;ratioP2
53775;SDS011;44276;49.534;6.378;2023-02-15T00:00:14;122.00;;;41.60;;
53775;SDS011;44276;49.534;6.378;2023-02-15T00:02:45;121.68;;;41.75;;
53775;SDS011;44276;49.534;6.378;2023-02-15T00:05:15;116.60;;;40.67;;
53775;SDS011;44276;49.534;6.378;2023-02-15T00:07:43;118.07;;;39.40;;
53775;SDS011;44276;49.534;6.378;2023-02-15T00:10:11;116.20;;;41.10;;
53775;SDS011;44276;49.534;6.378;2023-02-15T00:12:40;117.00;;;42.30;;
53775;SDS011;44276;49.534;6.378;2023-02-15T00:15:09;116.55;;;41.75;;
53775;SDS011;44276;49.534;6.378;2023-02-15T00:17:38;108.90;;;38.85;;
53775;SDS011;44276;49.534;6.378;2023-02-15T00:20:07;114.80;;;37.47;;
53775;SDS011;44276;49.534;6.378;2023-02-15T00:22:38;129.52;;;42.47;;
53775;SDS011;44276;49.534;6.378;2023-02-15T00:25:06;102.53;;;40.10;;
53775;SDS011;44276;49.534;6.378;2023-02-15T00:27:34;121.65;;;42.38;;
53775;SDS011;44276;49.534;6.378;2023-02-15T00:30:03;101.95;;;37.72;;
53775;SDS011;44276;49.534;6.378;2023-02-15T00:32:33;105.07;;;38.45;;
53775;SDS011;44276;49.534;6.378;2023-02-15T00:35:01;124.88;;;40.80;;
53775;SDS011;44276;49.534;6.378;2023-02-15T00:37:29;132.80;;;40.42;;
53775;SDS011;44276;49.534;6.378;2023-02-15T00:39:59;104.22;;;38.83;;
53775;SDS011;44276;49.534;6.378;2023-02-15T00:42:27;101.95;;;38.97;;
53775;SDS011;44276;49.534;6.378;2023-02-15T00:44:55;122.78;;;39.63;;
53775;SDS011;44276;49.534;6.378;2023-02-15T00:47:23;119.35;;;40.50;;
53775;SDS011;44276;49.534;6.378;2023-02-15T00:49:51;126.47;;;41.97;;
53775;SDS011;44276;49.534;6.378;2023-02-15T00:52:19;101.82;;;42.60;;
53775;SDS011;44276;49.534;6.378;2023-02-15T00:54:47;122.40;;;44.70;;
53775;SDS011;44276;49.534;6.378;2023-02-15T00:57:17;118.97;;;43.63;;
53775;SDS011;44276;49.534;6.378;2023-02-15T00:59:45;132.15;;;42.83;;
53775;SDS011;44276;49.534;6.378;2023-02-15T01:02:13;109.65;;;41.17;;
53775;SDS011;44276;49.534;6.378;2023-02-15T01:04:41;119.07;;;37.72;;
53775;SDS011;44276;49.534;6.378;2023-02-15T01:07:10;124.20;;;40.65;;
53775;SDS011;44276;49.534;6.378;2023-02-15T01:09:38;119.63;;;42.40;;
53775;SDS011;44276;49.534;6.378;2023-02-15T01:12:06;138.48;;;43.88;;
53775;SDS011;44276;49.534;6.378;2023-02-15T01:14:36;134.43;;;44.30;;
53775;SDS011;44276;49.534;6.378;2023-02-15T01:17:04;118.78;;;42.17;;
53775;SDS011;44276;49.534;6.378;2023-02-15T01:19:32;112.75;;;41.08;;
53775;SDS011;44276;49.534;6.378;2023-02-15T01:22:00;116.57;;;40.42;;
53775;SDS011;44276;49.534;6.378;2023-02-15T01:24:29;125.50;;;41.83;;
53775;SDS011;44276;49.534;6.378;2023-02-15T01:26:58;119.05;;;42.38;;
53775;SDS011;44276;49.534;6.378;2023-02-15T01:29:26;101.22;;;37.35;;
53775;SDS011;44276;49.534;6.378;2023-02-15T01:31:55;117.57;;;42.03;;
53775;SDS011;44276;49.534;6.378;2023-02-15T01:34:24;118.38;;;40.42;;
53775;SDS011;44276;49.534;6.378;2023-02-15T01:36:52;110.28;;;42.55;;
53775;SDS011;44276;49.534;6.378;2023-02-15T01:39:20;120.70;;;43.45;;
53775;SDS011;44276;49.534;6.378;2023-02-15T01:41:48;126.97;;;42.22;;
53775;SDS011;44276;49.534;6.378;2023-02-15T01:47:19;123.50;;;37.30;;
53775;SDS011;44276;49.534;6.378;2023-02-15T01:49:57;108.70;;;39.90;;
53775;SDS011;44276;49.534;6.378;2023-02-15T01:52:33;123.07;;;41.97;;
53775;SDS011;44276;49.534;6.378;2023-02-15T01:55:06;138.55;;;40.47;;
53775;SDS011;44276;49.534;6.378;2023-02-15T01:57:36;127.93;;;41.75;;
53775;SDS011;44276;49.534;6.378;2023-02-15T02:00:05;113.13;;;40.70;;
53775;SDS011;44276;49.534;6.378;2023-02-15T02:02:37;122.95;;;40.88;;
53775;SDS011;44276;49.534;6.378;2023-02-15T02:05:06;101.55;;;39.13;;
53775;SDS011;44276;49.534;6.378;2023-02-15T02:07:37;93.57;;;35.90;;
53775;SDS011;44276;49.534;6.378;2023-02-15T02:10:11;96.35;;;34.13;;
53775;SDS011;44276;49.534;6.378;2023-02-15T02:12:43;104.60;;;38.85;;
53775;SDS011;44276;49.534;6.378;2023-02-15T02:15:16;128.45;;;41.13;;
53775;SDS011;44276;49.534;6.378;2023-02-15T02:17:52;118.43;;;41.05;;
53775;SDS011;44276;49.534;6.378;2023-02-15T02:24:01;106.70;;;36.42;;
53775;SDS011;44276;49.534;6.378;2023-02-15T02:27:23;112.20;;;37.10;;
53775;SDS011;44276;49.534;6.378;2023-02-15T02:30:14;111.65;;;36.70;;
53775;SDS011;44276;49.534;6.378;2023-02-15T02:33:09;114.35;;;37.33;;
53775;SDS011;44276;49.534;6.378;2023-02-15T02:36:02;113.55;;;39.47;;
53775;SDS011;44276;49.534;6.378;2023-02-15T02:38:56;111.30;;;38.58;;
53775;SDS011;44276;49.534;6.378;2023-02-15T02:41:50;110.03;;;37.75;;
53775;SDS011;44276;49.534;6.378;2023-02-15T02:44:26;111.50;;;39.17;;
53775;SDS011;44276;49.534;6.378;2023-02-15T02:47:07;140.20;;;43.22;;
53775;SDS011;44276;49.534;6.378;2023-02-15T02:49:43;112.65;;;39.20;;
53775;SDS011;44276;49.534;6.378;2023-02-15T02:55:07;125.15;;;42.90;;
53775;SDS011;44276;49.534;6.378;2023-02-15T02:57:44;124.20;;;42.97;;
53775;SDS011;44276;49.534;6.378;2023-02-15T03:00:21;121.38;;;39.45;;
53775;SDS011;44276;49.534;6.378;2023-02-15T03:02:54;95.65;;;36.33;;
53775;SDS011;44276;49.534;6.378;2023-02-15T03:05:32;96.18;;;35.95;;
53775;SDS011;44276;49.534;6.378;2023-02-15T03:08:06;121.97;;;38.60;;
53775;SDS011;44276;49.534;6.378;2023-02-15T03:10:36;138.88;;;43.80;;
53775;SDS011;44276;49.534;6.378;2023-02-15T03:13:07;112.82;;;41.35;;
53775;SDS011;44276;49.534;6.378;2023-02-15T03:15:37;140.02;;;45.42;;
53775;SDS011;44276;49.534;6.378;2023-02-15T03:18:28;125.57;;;41.40;;
53775;SDS011;44276;49.534;6.378;2023-02-15T03:21:03;142.00;;;46.00;;
53775;SDS011;44276;49.534;6.378;2023-02-15T03:23:35;147.40;;;46.53;;
53775;SDS011;44276;49.534;6.378;2023-02-15T03:26:06;165.23;;;50.28;;
53775;SDS011;44276;49.534;6.378;2023-02-15T03:28:39;148.05;;;48.83;;
53775;SDS011;44276;49.534;6.378;2023-02-15T03:31:13;163.82;;;51.97;;
53775;SDS011;44276;49.534;6.378;2023-02-15T03:33:47;150.30;;;47.75;;
53775;SDS011;44276;49.534;6.378;2023-02-15T03:36:24;193.32;;;56.15;;
53775;SDS011;44276;49.534;6.378;2023-02-15T03:39:05;180.88;;;50.15;;
53775;SDS011;44276;49.534;6.378;2023-02-15T03:41:44;174.20;;;54.38;;
53775;SDS011;44276;49.534;6.378;2023-02-15T03:44:22;179.15;;;47.08;;
53775;SDS011;44276;49.534;6.378;2023-02-15T03:46:58;155.95;;;53.60;;
53775;SDS011;44276;49.534;6.378;2023-02-15T03:52:09;176.95;;;45.60;;
53775;SDS011;44276;49.534;6.378;2023-02-15T03:54:42;151.40;;;46.55;;
53775;SDS011;44276;49.534;6.378;2023-02-15T03:57:16;141.48;;;47.42;;
53775;SDS011;44276;49.534;6.378;2023-02-15T04:00:09;135.05;;;48.28;;
53775;SDS011;44276;49.534;6.378;2023-02-15T04:03:11;181.38;;;44.78;;
53775;SDS011;44276;49.534;6.378;2023-02-15T04:05:51;168.65;;;45.72;;
53775;SDS011;44276;49.534;6.378;2023-02-15T04:08:21;124.82;;;46.05;;
53775;SDS011;44276;49.534;6.378;2023-02-15T04:11:10;153.30;;;48.88;;
53775;SDS011;44276;49.534;6.378;2023-02-15T04:13:37;135.00;;;46.45;;
53775;SDS011;44276;49.534;6.378;2023-02-15T04:16:05;199.48;;;46.97;;
53775;SDS011;44276;49.534;6.378;2023-02-15T04:18:34;166.65;;;49.42;;
53775;SDS011;44276;49.534;6.378;2023-02-15T04:21:23;151.73;;;47.40;;
53775;SDS011;44276;49.534;6.378;2023-02-15T04:24:12;148.80;;;44.90;;
53775;SDS011;44276;49.534;6.378;2023-02-15T04:26:59;160.35;;;46.90;;
53775;SDS011;44276;49.534;6.378;2023-02-15T04:29:29;146.88;;;50.30;;
53775;SDS011;44276;49.534;6.378;2023-02-15T04:31:59;157.95;;;47.63;;
53775;SDS011;44276;49.534;6.378;2023-02-15T04:34:28;147.30;;;46.42;;
53775;SDS011;44276;49.534;6.378;2023-02-15T04:36:56;150.48;;;45.08;;
53775;SDS011;44276;49.534;6.378;2023-02-15T04:39:26;203.88;;;50.95;;
53775;SDS011;44276;49.534;6.378;2023-02-15T04:41:54;241.15;;;52.83;;
53775;SDS011;44276;49.534;6.378;2023-02-15T04:44:22;188.27;;;50.53;;
53775;SDS011;44276;49.534;6.378;2023-02-15T04:46:50;216.38;;;54.45;;
53775;SDS011;44276;49.534;6.378;2023-02-15T04:49:18;195.35;;;50.38;;
53775;SDS011;44276;49.534;6.378;2023-02-15T04:51:46;203.48;;;54.63;;
53775;SDS011;44276;49.534;6.378;2023-02-15T04:54:14;226.25;;;50.95;;
53775;SDS011;44276;49.534;6.378;2023-02-15T04:56:44;212.07;;;52.83;;
53775;SDS011;44276;49.534;6.378;2023-02-15T04:59:12;193.77;;;53.10;;
53775;SDS011;44276;49.534;6.378;2023-02-15T05:01:41;164.98;;;44.55;;
53775;SDS011;44276;49.534;6.378;2023-02-15T05:04:09;159.73;;;46.00;;
53775;SDS011;44276;49.534;6.378;2023-02-15T05:06:37;205.45;;;47.10;;
53775;SDS011;44276;49.534;6.378;2023-02-15T05:09:05;152.73;;;44.97;;
53775;SDS011;44276;49.534;6.378;2023-02-15T05:11:33;194.63;;;49.17;;
53775;SDS011;44276;49.534;6.378;2023-02-15T05:14:03;250.30;;;62.20;;
53775;SDS011;44276;49.534;6.378;2023-02-15T05:16:32;127.78;;;43.45;;
53775;SDS011;44276;49.534;6.378;2023-02-15T05:19:01;182.48;;;52.75;;
53775;SDS011;44276;49.534;6.378;2023-02-15T05:21:29;184.93;;;53.35;;
53775;SDS011;44276;49.534;6.378;2023-02-15T05:23:58;175.48;;;57.83;;
53775;SDS011;44276;49.534;6.378;2023-02-15T05:26:26;136.20;;;45.17;;
53775;SDS011;44276;49.534;6.378;2023-02-15T05:29:13;242.48;;;45.40;;
53775;SDS011;44276;49.534;6.378;2023-02-15T05:31:41;170.45;;;44.53;;
53775;SDS011;44276;49.534;6.378;2023-02-15T05:34:13;136.00;;;42.55;;
53775;SDS011;44276;49.534;6.378;2023-02-15T05:36:41;167.55;;;44.42;;
53775;SDS011;44276;49.534;6.378;2023-02-15T05:39:10;161.45;;;48.00;;
53775;SDS011;44276;49.534;6.378;2023-02-15T05:41:38;190.88;;;49.92;;
53775;SDS011;44276;49.534;6.378;2023-02-15T05:44:06;171.60;;;49.10;;
53775;SDS011;44276;49.534;6.378;2023-02-15T05:46:35;141.07;;;45.63;;
53775;SDS011;44276;49.534;6.378;2023-02-15T05:49:04;169.10;;;48.13;;
53775;SDS011;44276;49.534;6.378;2023-02-15T05:51:32;171.15;;;47.55;;
53775;SDS011;44276;49.534;6.378;2023-02-15T05:54:00;175.55;;;48.70;;
53775;SDS011;44276;49.534;6.378;2023-02-15T05:56:28;154.55;;;47.00;;
53775;SDS011;44276;49.534;6.378;2023-02-15T05:58:56;144.57;;;43.42;;
53775;SDS011;44276;49.534;6.378;2023-02-15T06:01:24;168.73;;;45.85;;
53775;SDS011;44276;49.534;6.378;2023-02-15T06:03:54;157.38;;;46.97;;
53775;SDS011;44276;49.534;6.378;2023-02-15T06:06:22;151.70;;;48.20;;
53775;SDS011;44276;49.534;6.378;2023-02-15T06:08:51;140.95;;;47.70;;
53775;SDS011;44276;49.534;6.378;2023-02-15T06:11:19;157.38;;;49.03;;
53775;SDS011;44276;49.534;6.378;2023-02-15T06:13:47;199.20;;;50.35;;
53775;SDS011;44276;49.534;6.378;2023-02-15T06:16:15;169.13;;;48.42;;
53775;SDS011;44276;49.534;6.378;2023-02-15T06:18:43;179.05;;;49.97;;
53775;SDS011;44276;49.534;6.378;2023-02-15T06:21:12;225.63;;;49.10;;
53775;SDS011;44276;49.534;6.378;2023-02-15T06:23:41;178.23;;;47.58;;
53775;SDS011;44276;49.534;6.378;2023-02-15T06:26:09;203.73;;;42.85;;
53775;SDS011;44276;49.534;6.378;2023-02-15T06:28:37;185.32;;;46.17;;
53775;SDS011;44276;49.534;6.378;2023-02-15T06:31:07;169.20;;;42.22;;
53775;SDS011;44276;49.534;6.378;2023-02-15T06:33:35;189.73;;;48.10;;
53775;SDS011;44276;49.534;6.378;2023-02-15T06:36:04;166.48;;;44.58;;
53775;SDS011;44276;49.534;6.378;2023-02-15T06:38:34;160.45;;;44.05;;
53775;SDS011;44276;49.534;6.378;2023-02-15T06:41:02;170.35;;;46.95;;
53775;SDS011;44276;49.534;6.378;2023-02-15T06:43:31;201.65;;;50.67;;
53775;SDS011;44276;49.534;6.378;2023-02-15T06:46:00;203.20;;;43.78;;
53775;SDS011;44276;49.534;6.378;2023-02-15T06:48:29;172.52;;;50.08;;
53775;SDS011;44276;49.534;6.378;2023-02-15T06:50:57;147.45;;;42.55;;
53775;SDS011;44276;49.534;6.378;2023-02-15T06:53:25;122.35;;;41.00;;
53775;SDS011;44276;49.534;6.378;2023-02-15T06:56:00;148.77;;;42.45;;
53775;SDS011;44276;49.534;6.378;2023-02-15T06:58:32;167.38;;;44.22;;
53775;SDS011;44276;49.534;6.378;2023-02-15T07:01:01;175.43;;;42.83;;
53775;SDS011;44276;49.534;6.378;2023-02-15T07:03:30;130.38;;;39.47;;
53775;SDS011;44276;49.534;6.378;2023-02-15T07:06:01;140.20;;;40.63;;
53775;SDS011;44276;49.534;6.378;2023-02-15T07:08:34;191.07;;;44.63;;
53775;SDS011;44276;49.534;6.378;2023-02-15T07:11:05;148.10;;;41.38;;
53775;SDS011;44276;49.534;6.378;2023-02-15T07:13:52;123.82;;;42.25;;
53775;SDS011;44276;49.534;6.378;2023-02-15T07:16:20;155.57;;;42.55;;
53775;SDS011;44276;49.534;6.378;2023-02-15T07:18:49;193.20;;;44.50;;
53775;SDS011;44276;49.534;6.378;2023-02-15T07:21:17;134.98;;;39.25;;
53775;SDS011;44276;49.534;6.378;2023-02-15T07:23:45;116.63;;;38.17;;
53775;SDS011;44276;49.534;6.378;2023-02-15T07:26:15;157.45;;;46.03;;
53775;SDS011;44276;49.534;6.378;2023-02-15T07:28:44;142.90;;;42.35;;
53775;SDS011;44276;49.534;6.378;2023-02-15T07:31:12;128.05;;;41.70;;
53775;SDS011;44276;49.534;6.378;2023-02-15T07:33:40;136.10;;;41.25;;
53775;SDS011;44276;49.534;6.378;2023-02-15T07:36:09;135.45;;;41.15;;
53775;SDS011;44276;49.534;6.378;2023-02-15T07:38:39;104.82;;;39.28;;
53775;SDS011;44276;49.534;6.378;2023-02-15T07:41:10;121.57;;;39.33;;
53775;SDS011;44276;49.534;6.378;2023-02-15T07:43:42;128.88;;;38.92;;
53775;SDS011;44276;49.534;6.378;2023-02-15T07:46:13;120.93;;;41.25;;
53775;SDS011;44276;49.534;6.378;2023-02-15T07:48:44;147.60;;;43.35;;
53775;SDS011;44276;49.534;6.378;2023-02-15T07:51:13;112.38;;;33.90;;
53775;SDS011;44276;49.534;6.378;2023-02-15T07:53:42;127.97;;;38.42;;
53775;SDS011;44276;49.534;6.378;2023-02-15T07:56:11;147.35;;;43.22;;
53775;SDS011;44276;49.534;6.378;2023-02-15T07:58:41;159.63;;;41.10;;
53775;SDS011;44276;49.534;6.378;2023-02-15T08:01:19;145.88;;;40.00;;
53775;SDS011;44276;49.534;6.378;2023-02-15T08:03:51;142.95;;;36.33;;
53775;SDS011;44276;49.534;6.378;2023-02-15T08:06:20;148.23;;;38.88;;
53775;SDS011;44276;49.534;6.378;2023-02-15T08:08:50;99.70;;;36.72;;
53775;SDS011;44276;49.534;6.378;2023-02-15T08:11:19;101.45;;;33.75;;
53775;SDS011;44276;49.534;6.378;2023-02-15T08:13:57;109.87;;;37.27;;
53775;SDS011;44276;49.534;6.378;2023-02-15T08:16:29;126.13;;;38.92;;
53775;SDS011;44276;49.534;6.378;2023-02-15T08:19:01;125.97;;;37.03;;
53775;SDS011;44276;49.534;6.378;2023-02-15T08:21:32;121.00;;;39.13;;
53775;SDS011;44276;49.534;6.378;2023-02-15T08:24:02;181.20;;;40.45;;
53775;SDS011;44276;49.534;6.378;2023-02-15T08:26:32;105.75;;;34.40;;
53775;SDS011;44276;49.534;6.378;2023-02-15T08:29:03;258.38;;;57.53;;
53775;SDS011;44276;49.534;6.378;2023-02-15T08:31:32;152.18;;;40.53;;
53775;SDS011;44276;49.534;6.378;2023-02-15T08:34:01;134.43;;;43.05;;
53775;SDS011;44276;49.534;6.378;2023-02-15T08:36:30;146.35;;;42.72;;
53775;SDS011;44276;49.534;6.378;2023-02-15T08:38:59;210.90;;;40.75;;
53775;SDS011;44276;49.534;6.378;2023-02-15T08:41:30;102.25;;;30.38;;
53775;SDS011;44276;49.534;6.378;2023-02-15T08:44:04;105.97;;;29.77;;
53775;SDS011;44276;49.534;6.378;2023-02-15T08:46:35;106.75;;;33.55;;
53775;SDS011;44276;49.534;6.378;2023-02-15T08:49:05;95.38;;;29.20;;
53775;SDS011;44276;49.534;6.378;2023-02-15T08:51:34;99.32;;;33.05;;
53775;SDS011;44276;49.534;6.378;2023-02-15T08:54:06;82.78;;;30.38;;
53775;SDS011;44276;49.534;6.378;2023-02-15T08:56:37;73.95;;;25.17;;
53775;SDS011;44276;49.534;6.378;2023-02-15T08:59:11;82.07;;;31.13;;
53775;SDS011;44276;49.534;6.378;2023-02-15T09:01:42;70.63;;;28.08;;
53775;SDS011;44276;49.534;6.378;2023-02-15T09:04:11;65.97;;;26.48;;
53775;SDS011;44276;49.534;6.378;2023-02-15T09:06:42;56.15;;;23.85;;
53775;SDS011;44276;49.534;6.378;2023-02-15T09:09:14;76.47;;;29.50;;
53775;SDS011;44276;49.534;6.378;2023-02-15T09:11:43;63.30;;;24.30;;
53775;SDS011;44276;49.534;6.378;2023-02-15T09:14:16;60.50;;;25.02;;
53775;SDS011;44276;49.534;6.378;2023-02-15T09:16:47;58.60;;;22.42;;
53775;SDS011;44276;49.534;6.378;2023-02-15T09:19:18;55.70;;;24.80;;
53775;SDS011;44276;49.534;6.378;2023-02-15T09:21:48;51.58;;;20.23;;
53775;SDS011;44276;49.534;6.378;2023-02-15T09:24:17;45.83;;;18.48;;
53775;SDS011;44276;49.534;6.378;2023-02-15T09:26:46;45.42;;;21.38;;
53775;SDS011;44276;49.534;6.378;2023-02-15T09:29:17;47.42;;;20.63;;
53775;SDS011;44276;49.534;6.378;2023-02-15T09:31:47;47.90;;;20.20;;
53775;SDS011;44276;49.534;6.378;2023-02-15T09:34:17;47.38;;;20.85;;
53775;SDS011;44276;49.534;6.378;2023-02-15T09:36:48;52.03;;;21.27;;
53775;SDS011;44276;49.534;6.378;2023-02-15T09:39:20;45.60;;;21.10;;
53775;SDS011;44276;49.534;6.378;2023-02-15T09:42:04;42.45;;;20.13;;
53775;SDS011;44276;49.534;6.378;2023-02-15T09:45:15;44.58;;;19.88;;
53775;SDS011;44276;49.534;6.378;2023-02-15T09:48:01;47.25;;;20.23;;
53775;SDS011;44276;49.534;6.378;2023-02-15T09:51:16;44.47;;;22.48;;
53775;SDS011;44276;49.534;6.378;2023-02-15T09:54:14;42.35;;;19.42;;
53775;SDS011;44276;49.534;6.378;2023-02-15T09:56:57;35.50;;;19.08;;
53775;SDS011;44276;49.534;6.378;2023-02-15T09:59:34;40.60;;;19.50;;
53775;SDS011;44276;49.534;6.378;2023-02-15T10:02:19;35.78;;;17.50;;
53775;SDS011;44276;49.534;6.378;2023-02-15T10:05:08;37.38;;;18.55;;
53775;SDS011;44276;49.534;6.378;2023-02-15T10:11:02;32.08;;;18.27;;
53775;SDS011;44276;49.534;6.378;2023-02-15T10:14:02;30.05;;;16.70;;
53775;SDS011;44276;49.534;6.378;2023-02-15T10:16:55;33.05;;;16.05;;
53775;SDS011;44276;49.534;6.378;2023-02-15T10:19:37;28.48;;;13.63;;
53775;SDS011;44276;49.534;6.378;2023-02-15T10:22:22;30.17;;;14.70;;
53775;SDS011;44276;49.534;6.378;2023-02-15T10:25:07;31.10;;;16.02;;
53775;SDS011;44276;49.534;6.378;2023-02-15T10:28:03;27.90;;;14.73;;
53775;SDS011;44276;49.534;6.378;2023-02-15T10:30:36;56.03;;;35.20;;
53775;SDS011;44276;49.534;6.378;2023-02-15T10:33:16;33.47;;;17.85;;
53775;SDS011;44276;49.534;6.378;2023-02-15T10:36:05;31.08;;;17.52;;
53775;SDS011;44276;49.534;6.378;2023-02-15T10:38:55;28.15;;;15.40;;
53775;SDS011;44276;49.534;6.378;2023-02-15T10:41:37;27.38;;;15.52;;
53775;SDS011;44276;49.534;6.378;2023-02-15T10:44:20;28.75;;;16.40;;
53775;SDS011;44276;49.534;6.378;2023-02-15T10:47:18;30.35;;;15.63;;
53775;SDS011;44276;49.534;6.378;2023-02-15T10:50:03;21.95;;;15.07;;
53775;SDS011;44276;49.534;6.378;2023-02-15T10:52:54;28.85;;;16.17;;
53775;SDS011;44276;49.534;6.378;2023-02-15T10:55:47;28.70;;;15.85;;
53775;SDS011;44276;49.534;6.378;2023-02-15T10:58:29;24.90;;;15.13;;
53775;SDS011;44276;49.534;6.378;2023-02-15T11:01:18;28.20;;;15.55;;
53775;SDS011;44276;49.534;6.378;2023-02-15T11:04:02;31.13;;;16.65;;
53775;SDS011;44276;49.534;6.378;2023-02-15T11:07:05;25.65;;;16.23;;
53775;SDS011;44276;49.534;6.378;2023-02-15T11:10:11;29.85;;;16.90;;
53775;SDS011;44276;49.534;6.378;2023-02-15T11:12:57;28.33;;;16.77;;
53775;SDS011;44276;49.534;6.378;2023-02-15T11:15:33;24.25;;;15.07;;
53775;SDS011;44276;49.534;6.378;2023-02-15T11:18:09;28.50;;;15.77;;
53775;SDS011;44276;49.534;6.378;2023-02-15T11:20:49;24.92;;;15.75;;
53775;SDS011;44276;49.534;6.378;2023-02-15T11:23:26;27.67;;;18.98;;
53775;SDS011;44276;49.534;6.378;2023-02-15T11:25:58;26.90;;;16.83;;
53775;SDS011;44276;49.534;6.378;2023-02-15T11:28:30;29.30;;;18.17;;
53775;SDS011;44276;49.534;6.378;2023-02-15T11:31:02;25.70;;;16.90;;
53775;SDS011;44276;49.534;6.378;2023-02-15T11:33:44;27.45;;;16.63;;
53775;SDS011;44276;49.534;6.378;2023-02-15T11:36:19;25.50;;;15.52;;
53775;SDS011;44276;49.534;6.378;2023-02-15T11:38:56;26.50;;;16.80;;
53775;SDS011;44276;49.534;6.378;2023-02-15T11:41:33;27.00;;;17.40;;
53775;SDS011;44276;49.534;6.378;2023-02-15T11:44:10;26.55;;;16.85;;
53775;SDS011;44276;49.534;6.378;2023-02-15T11:46:44;31.77;;;18.83;;
53775;SDS011;44276;49.534;6.378;2023-02-15T11:49:19;24.70;;;15.65;;
53775;SDS011;44276;49.534;6.378;2023-02-15T11:51:57;33.97;;;19.30;;
53775;SDS011;44276;49.534;6.378;2023-02-15T11:54:31;30.70;;;18.92;;
53775;SDS011;44276;49.534;6.378;2023-02-15T11:57:06;28.08;;;17.98;;
53775;SDS011;44276;49.534;6.378;2023-02-15T11:59:49;27.80;;;19.00;;
53775;SDS011;44276;49.534;6.378;2023-02-15T12:02:25;24.50;;;17.40;;
53775;SDS011;44276;49.534;6.378;2023-02-15T12:04:56;32.92;;;18.60;;
53775;SDS011;44276;49.534;6.378;2023-02-15T12:07:30;29.83;;;18.63;;
53775;SDS011;44276;49.534;6.378;2023-02-15T12:10:05;31.13;;;18.95;;
53775;SDS011;44276;49.534;6.378;2023-02-15T12:12:49;28.42;;;18.55;;
53775;SDS011;44276;49.534;6.378;2023-02-15T12:15:39;30.10;;;19.30;;
53775;SDS011;44276;49.534;6.378;2023-02-15T12:18:17;27.73;;;18.40;;
53775;SDS011;44276;49.534;6.378;2023-02-15T12:23:29;27.23;;;17.33;;
53775;SDS011;44276;49.534;6.378;2023-02-15T12:25:59;29.50;;;19.17;;
53775;SDS011;44276;49.534;6.378;2023-02-15T12:28:32;30.30;;;19.20;;
53775;SDS011;44276;49.534;6.378;2023-02-15T12:31:07;35.40;;;20.60;;
53775;SDS011;44276;49.534;6.378;2023-02-15T12:33:47;33.83;;;19.20;;
53775;SDS011;44276;49.534;6.378;2023-02-15T12:36:21;32.60;;;19.98;;
53775;SDS011;44276;49.534;6.378;2023-02-15T12:39:05;30.70;;;18.58;;
53775;SDS011;44276;49.534;6.378;2023-02-15T12:41:56;29.63;;;17.73;;
53775;SDS011;44276;49.534;6.378;2023-02-15T12:44:33;27.90;;;18.50;;
53775;SDS011;44276;49.534;6.378;2023-02-15T12:47:03;32.25;;;19.63;;
53775;SDS011;44276;49.534;6.378;2023-02-15T12:49:34;32.08;;;19.40;;
53775;SDS011;44276;49.534;6.378;2023-02-15T12:52:05;32.47;;;18.08;;
53775;SDS011;44276;49.534;6.378;2023-02-15T12:54:51;29.40;;;16.38;;
53775;SDS011;44276;49.534;6.378;2023-02-15T12:57:24;27.67;;;15.50;;
53775;SDS011;44276;49.534;6.378;2023-02-15T12:59:56;23.30;;;14.15;;
53775;SDS011;44276;49.534;6.378;2023-02-15T13:02:30;27.77;;;16.40;;
53775;SDS011;44276;49.534;6.378;2023-02-15T13:05:14;27.83;;;17.30;;
53775;SDS011;44276;49.534;6.378;2023-02-15T13:07:50;31.92;;;15.80;;
53775;SDS011;44276;49.534;6.378;2023-02-15T13:10:26;30.77;;;14.98;;
53775;SDS011;44276;49.534;6.378;2023-02-15T13:12:58;30.33;;;17.42;;
53775;SDS011;44276;49.534;6.378;2023-02-15T13:15:32;24.45;;;14.88;;
53775;SDS011;44276;49.534;6.378;2023-02-15T13:18:05;32.15;;;15.02;;
53775;SDS011;44276;49.534;6.378;2023-02-15T13:20:42;29.38;;;15.50;;
53775;SDS011;44276;49.534;6.378;2023-02-15T13:23:17;26.80;;;15.43;;
53775;SDS011;44276;49.534;6.378;2023-02-15T13:25:55;23.40;;;14.27;;
53775;SDS011;44276;49.534;6.378;2023-02-15T13:28:32;27.40;;;14.00;;
53775;SDS011;44276;49.534;6.378;2023-02-15T13:31:12;38.28;;;16.48;;
53775;SDS011;44276;49.534;6.378;2023-02-15T13:33:43;25.65;;;13.85;;
53775;SDS011;44276;49.534;6.378;2023-02-15T13:36:20;23.98;;;13.45;;
53775;SDS011;44276;49.534;6.378;2023-02-15T13:38:58;24.23;;;13.93;;
53775;SDS011;44276;49.534;6.378;2023-02-15T13:41:46;22.05;;;12.80;;
53775;SDS011;44276;49.534;6.378;2023-02-15T13:44:27;22.42;;;13.65;;
53775;SDS011;44276;49.534;6.378;2023-02-15T13:47:26;27.75;;;15.10;;
53775;SDS011;44276;49.534;6.378;2023-02-15T13:53:13;31.52;;;15.65;;
53775;SDS011;44276;49.534;6.378;2023-02-15T13:56:04;29.38;;;14.65;;
53775;SDS011;44276;49.534;6.378;2023-02-15T14:01:55;28.48;;;15.98;;
53775;SDS011;44276;49.534;6.378;2023-02-15T14:04:50;25.80;;;15.43;;
53775;SDS011;44276;49.534;6.378;2023-02-15T14:07:44;25.35;;;12.90;;
53775;SDS011;44276;49.534;6.378;2023-02-15T14:10:27;25.33;;;14.57;;
53775;SDS011;44276;49.534;6.378;2023-02-15T14:13:28;29.65;;;15.10;;
53775;SDS011;44276;49.534;6.378;2023-02-15T14:16:26;27.20;;;15.60;;
53775;SDS011;44276;49.534;6.378;2023-02-15T14:19:14;25.33;;;14.70;;
53775;SDS011;44276;49.534;6.378;2023-02-15T14:21:55;29.30;;;14.23;;
53775;SDS011;44276;49.534;6.378;2023-02-15T14:24:33;23.38;;;12.63;;
53775;SDS011;44276;49.534;6.378;2023-02-15T14:27:14;21.95;;;12.75;;
53775;SDS011;44276;49.534;6.378;2023-02-15T14:29:56;32.67;;;14.75;;
53775;SDS011;44276;49.534;6.378;2023-02-15T14:32:28;22.80;;;13.90;;
53775;SDS011;44276;49.534;6.378;2023-02-15T14:37:41;25.67;;;12.25;;
53775;SDS011;44276;49.534;6.378;2023-02-15T14:40:26;26.40;;;13.93;;
53775;SDS011;44276;49.534;6.378;2023-02-15T14:43:24;24.10;;;13.93;;
53775;SDS011;44276;49.534;6.378;2023-02-15T14:46:07;29.42;;;14.63;;
53775;SDS011;44276;49.534;6.378;2023-02-15T14:48:48;24.00;;;13.63;;
53775;SDS011;44276;49.534;6.378;2023-02-15T14:57:28;28.92;;;14.30;;
53775;SDS011;44276;49.534;6.378;2023-02-15T15:03:00;21.50;;;12.48;;
53775;SDS011;44276;49.534;6.378;2023-02-15T15:05:31;25.70;;;13.48;;
53775;SDS011;44276;49.534;6.378;2023-02-15T15:08:03;23.77;;;14.13;;
53775;SDS011;44276;49.534;6.378;2023-02-15T15:16:29;25.98;;;13.57;;
53775;SDS011;44276;49.534;6.378;2023-02-15T15:22:40;28.35;;;13.38;;
53775;SDS011;44276;49.534;6.378;2023-02-15T15:25:11;25.10;;;13.35;;
53775;SDS011;44276;49.534;6.378;2023-02-15T15:28:11;27.17;;;15.32;;
53775;SDS011;44276;49.534;6.378;2023-02-15T15:31:22;29.55;;;13.43;;
53775;SDS011;44276;49.534;6.378;2023-02-15T15:34:12;27.77;;;14.10;;
53775;SDS011;44276;49.534;6.378;2023-02-15T15:40:29;23.60;;;13.05;;
53775;SDS011;44276;49.534;6.378;2023-02-15T15:43:38;29.17;;;13.43;;
53775;SDS011;44276;49.534;6.378;2023-02-15T15:46:56;20.25;;;13.82;;
53775;SDS011;44276;49.534;6.378;2023-02-15T15:49:45;29.20;;;13.93;;